createdAt,value
2023-02-15T00:00:43.590Z,63.55
2023-02-15T00:05:46.327Z,63.40
2023-02-15T00:10:51.099Z,53.53
2023-02-15T00:15:56.685Z,71.15
2023-02-15T00:20:59.647Z,64.63
2023-02-15T00:26:11.513Z,56.25
2023-02-15T00:31:14.481Z,64.55
2023-02-15T00:36:17.151Z,67.82
2023-02-15T00:41:19.824Z,65.60
2023-02-15T00:46:22.759Z,67.70
2023-02-15T00:51:26.038Z,65.18
2023-02-15T00:56:29.504Z,72.18
2023-02-15T01:01:32.581Z,71.60
2023-02-15T01:06:35.780Z,64.07
2023-02-15T01:11:39.093Z,74.22
2023-02-15T01:16:41.848Z,66.03
2023-02-15T01:21:44.321Z,66.80
2023-02-15T01:26:47.043Z,66.40
2023-02-15T01:31:49.808Z,61.50
2023-02-15T01:36:52.475Z,62.80
2023-02-15T01:41:57.688Z,85.93
2023-02-15T01:47:00.388Z,85.03
2023-02-15T01:52:03.251Z,68.53
2023-02-15T01:57:10.618Z,68.18
2023-02-15T02:02:15.697Z,57.05
2023-02-15T02:07:21.283Z,66.68
2023-02-15T02:12:24.829Z,62.65
2023-02-15T02:17:56.121Z,62.35
2023-02-15T02:23:10.490Z,68.47
2023-02-15T02:28:20.612Z,75.75
2023-02-15T02:33:49.507Z,74.03
2023-02-15T02:39:24.643Z,82.60
2023-02-15T02:44:44.605Z,74.43
2023-02-15T02:49:47.426Z,69.47
2023-02-15T02:54:50.158Z,67.38
2023-02-15T02:59:53.907Z,72.72
2023-02-15T03:05:05.016Z,74.38
2023-02-15T03:10:08.726Z,75.07
2023-02-15T03:15:49.815Z,64.28
2023-02-15T03:20:54.378Z,61.95
2023-02-15T03:26:03.951Z,83.68
2023-02-15T03:31:11.405Z,80.50
2023-02-15T03:41:27.914Z,60.15
2023-02-15T03:46:41.800Z,74.72
2023-02-15T03:51:47.389Z,70.75
2023-02-15T03:57:09.996Z,80.22
2023-02-15T04:02:25.532Z,64.05
2023-02-15T04:07:28.065Z,63.40
2023-02-15T04:12:31.655Z,63.30
2023-02-15T04:17:34.720Z,81.32
2023-02-15T04:22:56.038Z,66.90
2023-02-15T04:27:58.619Z,74.18
2023-02-15T04:33:01.249Z,65.00
2023-02-15T04:38:04.029Z,74.15
2023-02-15T04:43:06.799Z,63.25
2023-02-15T04:48:10.499Z,76.27
2023-02-15T04:53:13.347Z,76.95
2023-02-15T04:58:15.958Z,72.15
2023-02-15T05:03:19.659Z,73.80
2023-02-15T05:08:23.785Z,69.30
2023-02-15T05:13:26.394Z,67.63
2023-02-15T05:18:28.966Z,59.67
2023-02-15T05:23:31.557Z,73.10
2023-02-15T05:28:34.985Z,72.32
2023-02-15T05:33:38.074Z,74.03
2023-02-15T05:38:41.144Z,74.95
2023-02-15T05:43:44.015Z,66.20
2023-02-15T05:48:46.877Z,61.08
2023-02-15T05:53:49.501Z,71.00
2023-02-15T05:58:54.092Z,71.85
2023-02-15T06:03:57.125Z,74.03
2023-02-15T06:08:59.804Z,67.28
2023-02-15T06:14:03.333Z,69.85
2023-02-15T06:19:05.933Z,63.75
2023-02-15T06:24:11.458Z,61.67
2023-02-15T06:29:14.960Z,76.60
2023-02-15T06:34:18.832Z,65.43
2023-02-15T06:39:22.378Z,75.23
2023-02-15T06:44:25.032Z,76.28
2023-02-15T06:49:27.808Z,69.78
2023-02-15T06:54:30.738Z,75.97
2023-02-15T06:59:33.373Z,71.90
2023-02-15T07:04:36.155Z,74.43
2023-02-15T07:09:39.475Z,62.53
2023-02-15T07:14:42.732Z,72.78
2023-02-15T07:19:45.694Z,70.68
2023-02-15T07:24:50.030Z,59.80
2023-02-15T07:29:52.778Z,74.13
2023-02-15T07:34:55.521Z,84.32
2023-02-15T07:39:58.104Z,107.85
2023-02-15T07:45:00.802Z,96.35
2023-02-15T07:50:03.526Z,96.15
2023-02-15T07:55:08.014Z,130.63
2023-02-15T08:00:12.677Z,135.20
2023-02-15T08:05:16.177Z,144.07
2023-02-15T08:10:38.803Z,157.75
2023-02-15T08:15:48.505Z,166.70
2023-02-15T08:20:51.626Z,198.35
2023-02-15T08:25:55.601Z,270.63
2023-02-15T08:31:07.211Z,278.40
2023-02-15T08:36:13.820Z,395.48
2023-02-15T08:41:20.477Z,394.77
2023-02-15T08:46:25.298Z,417.25
2023-02-15T08:51:31.141Z,417.23
2023-02-15T08:56:35.932Z,455.00
2023-02-15T09:01:38.699Z,504.83
2023-02-15T09:06:42.213Z,549.90
2023-02-15T09:11:46.627Z,530.55
2023-02-15T09:16:51.936Z,550.25
2023-02-15T09:21:54.832Z,553.20
2023-02-15T09:26:57.486Z,527.28
2023-02-15T09:31:59.996Z,536.28
2023-02-15T09:37:03.837Z,540.67
2023-02-15T09:42:34.566Z,538.60
2023-02-15T09:47:47.281Z,530.58
2023-02-15T09:53:21.315Z,535.33
2023-02-15T09:58:53.738Z,520.10
2023-02-15T10:04:14.100Z,555.80
2023-02-15T10:09:37.881Z,544.35
2023-02-15T10:15:01.298Z,549.40
2023-02-15T10:20:19.082Z,544.63
2023-02-15T10:25:30.781Z,543.72
2023-02-15T10:30:36.318Z,533.13
2023-02-15T10:35:52.330Z,475.80
2023-02-15T10:41:12.122Z,494.80
2023-02-15T10:46:19.029Z,440.88
2023-02-15T10:52:10.608Z,452.67
2023-02-15T10:57:27.922Z,413.00
2023-02-15T11:02:46.888Z,356.95
2023-02-15T11:07:50.332Z,327.83
2023-02-15T11:12:55.110Z,290.60
2023-02-15T11:23:03.000Z,240.07
2023-02-15T11:28:19.903Z,236.45
2023-02-15T11:33:36.545Z,191.05
2023-02-15T11:38:44.297Z,182.30
2023-02-15T11:44:11.731Z,143.15
2023-02-15T11:49:33.458Z,117.43
2023-02-15T11:54:38.226Z,114.15
2023-02-15T11:59:44.774Z,102.05
2023-02-15T12:05:25.355Z,105.65
2023-02-15T12:10:33.527Z,89.60
2023-02-15T12:15:37.217Z,91.57
2023-02-15T12:20:39.937Z,85.90
2023-02-15T12:25:43.199Z,80.07
2023-02-15T12:30:48.034Z,92.05
2023-02-15T12:36:01.381Z,86.72
2023-02-15T12:41:24.463Z,83.97
2023-02-15T12:46:28.094Z,72.80
2023-02-15T12:51:30.661Z,84.30
2023-02-15T12:56:33.266Z,70.65
2023-02-15T13:01:35.881Z,84.75
2023-02-15T13:06:52.668Z,79.70
2023-02-15T13:11:56.748Z,85.88
2023-02-15T13:17:02.194Z,72.70
2023-02-15T13:22:09.451Z,92.13
2023-02-15T13:27:18.937Z,83.82
2023-02-15T13:32:28.989Z,88.90
2023-02-15T13:37:53.321Z,83.75
2023-02-15T13:42:56.976Z,86.75
2023-02-15T13:48:11.877Z,76.90
2023-02-15T13:53:43.106Z,87.57
2023-02-15T13:58:59.215Z,90.25
2023-02-15T14:04:12.287Z,85.70
2023-02-15T14:09:28.798Z,84.32
2023-02-15T14:14:58.460Z,84.47
2023-02-15T14:20:30.879Z,93.82
2023-02-15T14:25:40.638Z,91.78
2023-02-15T14:30:47.830Z,99.05
2023-02-15T14:35:50.773Z,94.65
2023-02-15T14:41:10.228Z,89.72
2023-02-15T14:46:51.950Z,91.40
2023-02-15T14:51:58.001Z,95.18
2023-02-15T14:57:03.284Z,108.22
2023-02-15T15:02:09.717Z,93.38
2023-02-15T15:07:16.107Z,93.18
2023-02-15T15:12:46.474Z,98.28
2023-02-15T15:18:00.711Z,83.40
2023-02-15T15:23:15.852Z,91.63
2023-02-15T15:28:36.786Z,100.70
2023-02-15T15:33:54.673Z,91.88
2023-02-15T15:39:12.275Z,89.30
2023-02-15T15:45:04.969Z,98.55
2023-02-15T15:50:33.915Z,81.65
2023-02-15T15:55:38.844Z,87.65
2023-02-15T16:00:45.471Z,82.50
2023-02-15T16:05:49.246Z,83.50
2023-02-15T16:10:53.594Z,74.07
2023-02-15T16:15:57.397Z,108.35
2023-02-15T16:21:01.821Z,116.03
2023-02-15T16:26:04.896Z,81.22
2023-02-15T16:31:17.913Z,87.93
2023-02-15T16:36:25.877Z,67.00
2023-02-15T16:41:31.799Z,96.78
2023-02-15T16:46:42.343Z,94.88
2023-02-15T16:51:46.238Z,88.85
2023-02-15T16:56:49.114Z,84.63
2023-02-15T17:01:52.902Z,76.07
2023-02-15T17:12:10.808Z,108.60
2023-02-15T17:17:15.773Z,93.07
2023-02-15T17:22:23.269Z,90.72
2023-02-15T17:27:29.375Z,108.53
2023-02-15T17:32:34.479Z,114.00
2023-02-15T17:37:37.592Z,120.28
2023-02-15T17:42:40.152Z,133.98
2023-02-15T17:47:43.433Z,132.95
2023-02-15T17:52:46.027Z,132.32
2023-02-15T17:57:48.778Z,133.43
2023-02-15T18:03:12.087Z,131.65
2023-02-15T18:08:35.486Z,97.23
2023-02-15T18:13:38.122Z,112.70
2023-02-15T18:18:41.121Z,123.05
2023-02-15T18:23:43.839Z,124.85
2023-02-15T18:28:46.535Z,139.02
2023-02-15T18:33:55.067Z,111.15
2023-02-15T18:38:58.217Z,99.10
2023-02-15T18:44:00.775Z,124.32
2023-02-15T18:49:03.547Z,104.40
2023-02-15T18:54:11.647Z,131.57
2023-02-15T18:59:18.094Z,112.43
2023-02-15T19:04:20.896Z,114.18
2023-02-15T19:09:42.117Z,117.47
2023-02-15T19:14:45.048Z,138.07
2023-02-15T19:19:48.139Z,100.55
2023-02-15T19:24:51.813Z,125.53
2023-02-15T19:29:57.068Z,129.30
2023-02-15T19:35:01.550Z,133.82
2023-02-15T19:40:07.900Z,123.75
2023-02-15T19:45:18.643Z,142.07
2023-02-15T19:50:25.916Z,132.70
2023-02-15T19:55:49.325Z,161.32
2023-02-15T20:00:52.220Z,141.63
2023-02-15T20:05:54.760Z,141.70
2023-02-15T20:10:58.865Z,127.07
2023-02-15T20:16:05.111Z,119.82
2023-02-15T20:21:12.847Z,152.80
2023-02-15T20:26:18.386Z,166.05
2023-02-15T20:31:25.870Z,168.30
2023-02-15T20:36:29.040Z,159.60
2023-02-15T20:41:40.117Z,162.75
2023-02-15T20:46:43.253Z,152.93
2023-02-15T20:51:47.502Z,178.38
2023-02-15T20:56:50.502Z,158.90
2023-02-15T21:01:56.850Z,160.20
2023-02-15T21:07:01.079Z,162.23
2023-02-15T21:12:03.862Z,163.07
2023-02-15T21:17:06.450Z,162.80
2023-02-15T21:22:13.129Z,165.88
2023-02-15T21:27:16.675Z,174.40
2023-02-15T21:32:19.513Z,179.73
2023-02-15T21:37:32.764Z,149.00
2023-02-15T21:42:53.833Z,152.25
2023-02-15T21:47:57.604Z,141.70
2023-02-15T21:53:00.630Z,155.87
2023-02-15T21:58:03.247Z,140.13
2023-02-15T22:03:06.200Z,149.40
2023-02-15T22:08:13.432Z,154.80
2023-02-15T22:13:20.339Z,151.95
2023-02-15T22:18:25.769Z,142.13
2023-02-15T22:23:29.036Z,158.77
2023-02-15T22:28:34.927Z,156.98
2023-02-15T22:33:37.826Z,151.88
2023-02-15T22:38:40.445Z,177.73
2023-02-15T22:43:45.133Z,172.30
2023-02-15T22:53:54.910Z,181.52
2023-02-15T22:59:02.326Z,171.02
2023-02-15T23:04:05.290Z,179.68
2023-02-15T23:09:08.383Z,180.35
2023-02-15T23:14:27.325Z,194.82
2023-02-15T23:19:29.872Z,195.15
2023-02-15T23:24:34.677Z,159.35
2023-02-15T23:29:37.445Z,133.70
2023-02-15T23:34:40.211Z,131.75
2023-02-15T23:40:01.455Z,143.63
2023-02-15T23:45:06.760Z,121.10
2023-02-15T23:50:20.046Z,127.75
2023-02-15T23:55:24.913Z,129.00
